Time;durP1;ratioP1;P1;durP2;ratioP2;P2;SDS_P1;SDS_P2;PMS_P1;PMS_P2;Temp;Humidity;BMP_temperature;BMP_pressure;BME280_temperature;BME280_humidity;BME280_pressure;Samples;Min_cycle;Max_cycle;Signal;HPM_P1;HPM_P2
2023/04/13 00:01:26;;;;;;;2.35;1.80;;;;;;;5.52;100.00;99371.88;5027457;28;20032;-62
2023/04/13 00:03:52;;;;;;;5.07;2.00;;;;;;;5.52;100.00;99367.44;5033822;28;20025;-62
2023/04/13 00:06:18;;;;;;;3.97;1.70;;;;;;;5.53;100.00;99363.84;5035948;28;20030;-62
2023/04/13 00:08:45;;;;;;;2.22;1.35;;;;;;;5.52;100.00;99359.53;5030420;28;20036;-62
2023/04/13 00:11:12;;;;;;;4.95;1.73;;;;;;;5.52;100.00;99361.34;5031984;28;20057;-62
2023/04/13 00:13:46;;;;;;;4.03;1.67;;;;;;;5.53;100.00;99350.69;5032363;28;20030;-62
2023/04/13 00:16:12;;;;;;;3.38;1.48;;;;;;;5.56;100.00;99368.03;5032468;28;20025;-62
2023/04/13 00:18:38;;;;;;;3.40;1.58;;;;;;;5.61;100.00;99362.41;5032716;28;20502;-62
2023/04/13 00:21:04;;;;;;;2.13;1.40;;;;;;;5.62;100.00;99364.09;5020874;28;20037;-62
2023/04/13 00:23:30;;;;;;;3.00;1.40;;;;;;;5.65;100.00;99350.69;5032551;28;20033;-62
2023/04/13 00:25:57;;;;;;;3.17;1.55;;;;;;;5.68;100.00;99367.06;5028749;28;20025;-62
2023/04/13 00:28:23;;;;;;;4.90;1.52;;;;;;;5.70;100.00;99362.50;5032023;28;20384;-62
2023/04/13 00:30:48;;;;;;;3.88;1.42;;;;;;;5.73;100.00;99362.25;5025298;28;20033;-62
2023/04/13 00:33:13;;;;;;;4.32;1.45;;;;;;;5.78;100.00;99367.16;5031350;28;20494;-62
2023/04/13 00:35:39;;;;;;;3.95;1.70;;;;;;;5.80;100.00;99359.97;5031973;28;20120;-62
2023/04/13 00:38:04;;;;;;;4.10;1.73;;;;;;;5.79;100.00;99357.47;5034736;28;20052;-62
2023/04/13 00:40:30;;;;;;;3.92;1.55;;;;;;;5.81;100.00;99356.38;5031766;28;20045;-63
2023/04/13 00:42:55;;;;;;;3.53;1.48;;;;;;;5.79;100.00;99368.81;5028840;28;20029;-63
2023/04/13 00:45:20;;;;;;;7.18;2.28;;;;;;;5.79;100.00;99363.56;5026928;28;20029;-63
2023/04/13 00:47:47;;;;;;;5.15;1.77;;;;;;;5.77;100.00;99367.28;5034122;28;20482;-63
2023/04/13 00:50:16;;;;;;;4.40;2.00;;;;;;;5.79;100.00;99362.72;5026387;28;20171;-62
2023/04/13 00:52:42;;;;;;;4.75;1.50;;;;;;;5.78;100.00;99372.44;5032686;28;20108;-63
2023/04/13 00:55:07;;;;;;;4.25;1.60;;;;;;;5.78;100.00;99367.16;5028024;28;20155;-63
2023/04/13 00:57:34;;;;;;;5.53;1.75;;;;;;;5.77;100.00;99362.84;5033565;28;20375;-63
2023/04/13 01:00:11;;;;;;;3.75;1.65;;;;;;;5.76;100.00;99369.06;5033367;28;20113;-63
2023/04/13 01:02:40;;;;;;;3.55;1.73;;;;;;;5.78;100.00;99367.16;5029676;28;20052;-62
2023/04/13 01:05:06;;;;;;;2.05;1.38;;;;;;;5.81;100.00;99364.28;5032670;28;20060;-63
2023/04/13 01:07:47;;;;;;;4.88;2.08;;;;;;;5.83;100.00;99358.88;5033226;28;20033;-62
2023/04/13 01:10:16;;;;;;;4.90;1.70;;;;;;;5.81;100.00;99359.03;5020834;28;20353;-62
2023/04/13 01:12:59;;;;;;;4.35;1.85;;;;;;;5.82;100.00;99362.50;5030970;28;20048;-62
2023/04/13 01:15:27;;;;;;;6.03;1.80;;;;;;;5.82;100.00;99365.13;5025755;28;20035;-62
2023/04/13 01:18:03;;;;;;;3.15;1.45;;;;;;;5.82;100.00;99359.84;5031213;28;20386;-62
2023/04/13 01:20:31;;;;;;;3.53;1.67;;;;;;;5.84;100.00;99366.66;5029695;28;20026;-63
2023/04/13 01:22:58;;;;;;;5.97;1.95;;;;;;;5.85;100.00;99362.25;5031414;28;20110;-62
2023/04/13 01:25:38;;;;;;;3.40;1.55;;;;;;;5.84;100.00;99374.56;5019083;28;20088;-63
2023/04/13 01:28:08;;;;;;;4.68;1.75;;;;;;;5.85;100.00;99362.25;5031462;28;20033;-63
2023/04/13 01:30:36;;;;;;;5.07;1.45;;;;;;;5.87;100.00;99361.13;5030640;28;20104;-63
2023/04/13 01:33:03;;;;;;;4.82;1.70;;;;;;;5.90;100.00;99365.34;5026427;28;20025;-62
2023/04/13 01:35:29;;;;;;;4.85;1.50;;;;;;;5.92;100.00;99373.94;5030319;28;20052;-62
2023/04/13 01:37:56;;;;;;;3.90;1.75;;;;;;;5.93;100.00;99380.91;5030855;28;20108;-63
2023/04/13 01:40:22;;;;;;;6.25;1.90;;;;;;;5.95;100.00;99380.78;5027401;28;20132;-62
2023/04/13 01:42:48;;;;;;;4.35;1.67;;;;;;;5.95;100.00;99378.97;5027975;28;20029;-62
2023/04/13 01:45:18;;;;;;;3.67;1.88;;;;;;;5.95;100.00;99389.53;5024089;28;20032;-62
2023/04/13 01:48:08;;;;;;;7.50;2.05;;;;;;;5.95;100.00;99393.97;5032212;28;20022;-62
2023/04/13 01:50:47;;;;;;;6.57;1.98;;;;;;;5.93;100.00;99391.44;5025088;28;20095;-62
2023/04/13 01:53:18;;;;;;;11.73;2.23;;;;;;;5.94;100.00;99398.38;5035465;28;20466;-60
2023/04/13 01:55:44;;;;;;;7.65;1.90;;;;;;;5.92;100.00;99403.78;5031633;28;20338;-60
2023/04/13 01:58:12;;;;;;;4.00;1.75;;;;;;;5.90;100.00;99400.44;5034840;28;20026;-59
2023/04/13 02:00:38;;;;;;;7.53;1.95;;;;;;;5.93;100.00;99430.97;5030069;28;20034;-59
2023/04/13 02:03:06;;;;;;;5.57;1.95;;;;;;;5.92;100.00;99422.22;5031738;28;20029;-58
2023/04/13 02:05:32;;;;;;;7.97;2.03;;;;;;;5.90;100.00;99426.78;5028828;28;20132;-56
2023/04/13 02:07:58;;;;;;;6.85;1.73;;;;;;;5.91;100.00;99424.97;5029894;28;20097;-58
2023/04/13 02:10:23;;;;;;;6.88;2.60;;;;;;;5.92;100.00;99442.47;5030654;28;20128;-59
2023/04/13 02:12:48;;;;;;;6.55;1.90;;;;;;;5.90;100.00;99437.31;5025658;28;20057;-57
2023/04/13 02:15:14;;;;;;;6.03;1.83;;;;;;;5.89;100.00;99438.25;5031363;28;20470;-58
2023/04/13 02:17:40;;;;;;;8.35;2.47;;;;;;;5.89;100.00;99451.44;5031957;28;20418;-59
2023/04/13 02:20:12;;;;;;;6.43;2.00;;;;;;;5.88;100.00;99447.16;5022716;28;20064;-57
2023/04/13 02:22:38;;;;;;;4.43;2.08;;;;;;;5.87;100.00;99455.19;5063087;28;20040;-58
2023/04/13 02:25:05;;;;;;;5.88;2.40;;;;;;;5.88;100.00;99456.88;5035571;28;20021;-57
2023/04/13 02:27:31;;;;;;;7.88;2.03;;;;;;;5.87;100.00;99461.28;5034146;28;20399;-57
2023/04/13 02:29:56;;;;;;;8.35;2.50;;;;;;;5.87;100.00;99469.19;5033606;28;20107;-58
2023/04/13 02:32:23;;;;;;;8.50;2.40;;;;;;;5.90;100.00;99465.47;5031922;28;20463;-58
2023/04/13 02:34:49;;;;;;;4.25;2.10;;;;;;;5.91;100.00;99472.41;5023299;28;20554;-58
2023/04/13 02:37:14;;;;;;;6.68;2.20;;;;;;;5.91;100.00;99472.41;5034793;28;20049;-59
2023/04/13 02:39:40;;;;;;;6.18;1.92;;;;;;;5.92;100.00;99477.56;5032109;28;20100;-59
2023/04/13 02:42:06;;;;;;;6.70;2.30;;;;;;;5.92;100.00;99477.56;5034719;28;20017;-58
2023/04/13 02:44:33;;;;;;;8.18;2.53;;;;;;;5.94;100.00;99480.06;5026382;28;20104;-58
2023/04/13 02:46:58;;;;;;;5.90;2.35;;;;;;;5.93;100.00;99487.16;5033535;28;20021;-58
2023/04/13 02:49:24;;;;;;;7.45;2.92;;;;;;;5.93;100.00;99489.78;5025574;28;20395;-59
2023/04/13 02:51:49;;;;;;;5.25;2.28;;;;;;;5.95;100.00;99504.66;5036364;28;20026;-57
2023/04/13 02:54:15;;;;;;;7.00;2.47;;;;;;;5.95;100.00;99499.38;5024849;28;20103;-57
2023/04/13 02:56:42;;;;;;;5.20;2.38;;;;;;;5.94;100.00;99501.16;5034887;28;20029;-58
2023/04/13 02:59:07;;;;;;;6.00;2.33;;;;;;;5.95;100.00;99496.75;5034870;28;20072;-54
2023/04/13 03:01:33;;;;;;;7.28;2.10;;;;;;;5.95;100.00;99534.47;5031238;28;20033;-56
2023/04/13 03:03:58;;;;;;;7.82;2.55;;;;;;;5.95;100.00;99525.72;5034831;28;20030;-56
2023/04/13 03:06:24;;;;;;;6.22;1.70;;;;;;;5.90;100.00;99531.34;5034735;28;20048;-53
2023/04/13 03:08:50;;;;;;;4.25;1.60;;;;;;;5.81;100.00;99532.91;5034611;28;20026;-53
2023/04/13 03:11:16;;;;;;;3.47;1.58;;;;;;;5.73;100.00;99538.78;5030927;28;20485;-53
2023/04/13 03:13:42;;;;;;;3.42;1.70;;;;;;;5.70;100.00;99540.81;5034964;28;20386;-54
2023/04/13 03:16:10;;;;;;;4.88;1.55;;;;;;;5.69;100.00;99541.75;5034417;28;20029;-54
2023/04/13 03:18:36;;;;;;;3.25;1.67;;;;;;;5.65;100.00;99551.69;5034682;28;20537;-57
2023/04/13 03:21:01;;;;;;;4.47;2.10;;;;;;;5.63;100.00;99558.88;5023439;28;20033;-55
2023/04/13 03:23:26;;;;;;;4.90;2.08;;;;;;;5.62;100.00;99553.72;5021432;28;20331;-54
2023/04/13 03:25:52;;;;;;;5.18;2.50;;;;;;;5.62;100.00;99559.81;5030057;28;20440;-55
2023/04/13 03:28:18;;;;;;;4.63;2.20;;;;;;;5.61;100.00;99566.03;5034553;28;20025;-56
2023/04/13 03:30:43;;;;;;;5.90;2.50;;;;;;;5.61;100.00;99568.69;5034467;28;20029;-56
2023/04/13 03:33:08;;;;;;;5.20;2.75;;;;;;;5.64;100.00;99570.25;5031782;28;20394;-57
2023/04/13 03:35:34;;;;;;;6.50;2.85;;;;;;;5.63;100.00;99569.41;5026599;28;20067;-57
2023/04/13 03:37:59;;;;;;;6.68;2.88;;;;;;;5.63;100.00;99569.41;5030355;28;20036;-56
2023/04/13 03:40:24;;;;;;;6.57;3.20;;;;;;;5.65;100.00;99577.22;5026423;28;20086;-58
2023/04/13 03:42:50;;;;;;;7.00;3.50;;;;;;;5.65;100.00;99585.94;5034059;28;20036;-57
2023/04/13 03:45:16;;;;;;;10.02;3.72;;;;;;;5.64;100.00;99583.41;5029246;28;20390;-55
2023/04/13 03:47:42;;;;;;;7.30;3.83;;;;;;;5.65;100.00;99593.84;5033955;28;20030;-56
2023/04/13 03:50:08;;;;;;;6.47;4.00;;;;;;;5.65;100.00;99595.66;5031342;28;20263;-57
2023/04/13 03:52:33;;;;;;;6.30;3.83;;;;;;;5.66;100.00;99595.53;5032850;28;20104;-55
2023/04/13 03:54:59;;;;;;;8.48;4.55;;;;;;;5.63;100.00;99593.13;5027996;28;20048;-57
2023/04/13 03:57:25;;;;;;;6.22;3.80;;;;;;;5.63;100.00;99601.03;5033027;28;20022;-57
2023/04/13 03:59:50;;;;;;;6.72;4.05;;;;;;;5.62;100.00;99604.59;5034166;28;20024;-57
2023/04/13 04:02:16;;;;;;;8.02;4.00;;;;;;;5.63;100.00;99606.28;5033822;28;20025;-57
2023/04/13 04:04:41;;;;;;;11.07;4.40;;;;;;;5.62;100.00;99598.50;5023153;28;20110;-58
2023/04/13 04:07:07;;;;;;;8.18;4.53;;;;;;;5.61;100.00;99608.19;5031823;28;20414;-57
2023/04/13 04:09:33;;;;;;;6.55;4.22;;;;;;;5.60;100.00;99613.59;5033629;28;20357;-57
2023/04/13 04:11:58;;;;;;;8.50;4.20;;;;;;;5.58;100.00;99616.34;5023827;28;20067;-58
2023/04/13 04:14:23;;;;;;;4.85;3.70;;;;;;;5.58;100.00;99626.88;5033522;28;20100;-57
2023/04/13 04:16:49;;;;;;;11.70;4.57;;;;;;;5.56;100.00;99631.41;5028653;28;20430;-58
2023/04/13 04:19:14;;;;;;;10.02;4.00;;;;;;;5.53;100.00;99640.38;5025580;28;20444;-58
2023/04/13 04:21:45;;;;;;;7.00;4.07;;;;;;;5.51;100.00;99642.31;5024528;28;20032;-58
2023/04/13 04:24:19;;;;;;;10.27;4.20;;;;;;;5.51;100.00;99650.22;5033072;28;20116;-59
2023/04/13 04:26:48;;;;;;;7.45;4.03;;;;;;;5.49;100.00;99651.25;5033624;28;20037;-59
2023/04/13 04:29:13;;;;;;;;;;;;;;;5.54;100.00;99654.38;5030140;28;20117;-60
2023/04/13 04:31:42;;;;;;;7.53;4.03;;;;;;;5.48;100.00;99652.19;5032914;28;19993;-60
2023/04/13 04:34:09;;;;;;;8.73;4.45;;;;;;;5.43;100.00;99655.19;5032747;28;20341;-60
2023/04/13 04:36:35;;;;;;;8.32;4.05;;;;;;;5.42;100.00;99658.78;5022624;28;20025;-59
2023/04/13 04:39:01;;;;;;;8.23;4.35;;;;;;;5.40;100.00;99659.84;5033005;28;20539;-60
2023/04/13 04:41:26;;;;;;;8.30;4.25;;;;;;;5.37;100.00;99667.00;5022825;28;20033;-60
2023/04/13 04:43:55;;;;;;;8.15;4.60;;;;;;;5.35;100.00;99674.19;5032522;28;20709;-60
2023/04/13 04:46:24;;;;;;;8.07;4.90;;;;;;;5.33;100.00;99685.81;5031646;28;20017;-59
2023/04/13 04:48:50;;;;;;;9.73;5.18;;;;;;;5.31;100.00;99679.78;5032661;28;20429;-61
2023/04/13 04:51:16;;;;;;;10.65;5.25;;;;;;;5.28;100.00;99686.13;5022515;28;20021;-61
2023/04/13 04:53:41;;;;;;;7.45;5.07;;;;;;;5.29;100.00;99694.88;5032651;28;20021;-61
2023/04/13 04:56:07;;;;;;;10.38;5.22;;;;;;;5.27;100.00;99694.97;5032806;28;20470;-61
2023/04/13 04:58:32;;;;;;;7.82;4.72;;;;;;;5.26;100.00;99698.56;5024478;28;20037;-61
2023/04/13 05:00:57;;;;;;;7.32;5.05;;;;;;;5.24;100.00;99695.19;5032859;28;20096;-61
2023/04/13 05:03:22;;;;;;;9.35;5.30;;;;;;;5.22;100.00;99697.09;5030115;28;20367;-61
2023/04/13 05:05:48;;;;;;;11.75;5.55;;;;;;;5.24;100.00;99697.00;5032696;28;20132;-62
2023/04/13 05:08:13;;;;;;;9.95;5.68;;;;;;;5.22;100.00;99698.91;5032211;28;20025;-62
2023/04/13 05:10:47;;;;;;;6.28;5.50;;;;;;;5.24;100.00;99699.63;5027808;28;20103;-62
2023/04/13 05:13:13;;;;;;;7.93;5.60;;;;;;;5.24;100.00;99703.09;5032223;28;20398;-62
2023/04/13 05:15:38;;;;;;;9.32;5.95;;;;;;;5.24;100.00;99704.88;5032673;28;20029;-62
2023/04/13 05:18:04;;;;;;;10.77;6.03;;;;;;;5.24;100.00;99700.47;5019399;28;20030;-62
2023/04/13 05:20:31;;;;;;;8.65;5.35;;;;;;;5.24;100.00;99703.09;5032123;28;20022;-62
2023/04/13 05:22:57;;;;;;;10.55;5.97;;;;;;;5.24;100.00;99703.09;5032163;28;20080;-62
2023/04/13 05:25:23;;;;;;;11.52;5.20;;;;;;;5.24;100.00;99713.63;5023239;28;20029;-62
2023/04/13 05:27:48;;;;;;;9.85;5.07;;;;;;;5.25;100.00;99707.41;5032382;28;20052;-62
2023/04/13 05:30:13;;;;;;;10.10;4.60;;;;;;;5.26;100.00;99717.00;5032269;28;20108;-62
2023/04/13 05:32:39;;;;;;;7.50;4.60;;;;;;;5.29;100.00;99718.56;5030223;28;20048;-62
2023/04/13 05:35:05;;;;;;;8.07;4.57;;;;;;;5.30;100.00;99728.97;5032027;28;20037;-62
2023/04/13 05:37:30;;;;;;;7.82;4.07;;;;;;;5.31;100.00;99721.91;5031862;28;20405;-62
2023/04/13 05:39:56;;;;;;;7.22;3.90;;;;;;;5.34;100.00;99726.97;5025916;28;20120;-63
2023/04/13 05:42:22;;;;;;;7.07;3.35;;;;;;;5.37;100.00;99732.00;5031832;28;20018;-62
2023/04/13 05:44:48;;;;;;;7.68;3.33;;;;;;;5.38;100.00;99734.53;5025961;28;20029;-63
2023/04/13 05:47:13;;;;;;;10.80;3.20;;;;;;;5.42;100.00;99739.59;5031923;28;20028;-64
2023/04/13 05:49:38;;;;;;;7.28;3.33;;;;;;;5.43;100.00;99750.00;5022853;28;20040;-63
2023/04/13 05:52:06;;;;;;;8.77;2.92;;;;;;;5.45;100.00;99739.34;5032215;28;20029;-63
2023/04/13 05:54:31;;;;;;;10.10;2.90;;;;;;;5.48;100.00;99742.59;5032175;28;20034;-63
2023/04/13 05:56:56;;;;;;;4.95;3.00;;;;;;;5.52;100.00;99754.59;5017979;28;20033;-64
2023/04/13 05:59:22;;;;;;;5.03;2.83;;;;;;;5.55;100.00;99757.00;5014253;28;20088;-60
2023/04/13 06:01:48;;;;;;;5.45;2.67;;;;;;;5.59;100.00;99767.31;5030411;28;20041;-66
2023/04/13 06:04:15;;;;;;;7.30;2.97;;;;;;;5.62;100.00;99773.19;5029839;28;20053;-66
2023/04/13 06:06:40;;;;;;;4.53;2.95;;;;;;;5.65;100.00;99778.25;5032531;28;20026;-60
2023/04/13 06:09:07;;;;;;;4.47;2.45;;;;;;;5.66;100.00;99782.56;5031384;28;20025;-61
2023/04/13 06:11:32;;;;;;;6.07;2.80;;;;;;;5.68;100.00;99788.56;5030605;28;20076;-60
2023/04/13 06:13:58;;;;;;;6.70;2.97;;;;;;;5.69;100.00;99795.50;5017041;28;20057;-60
2023/04/13 06:16:24;;;;;;;5.72;3.25;;;;;;;5.71;100.00;99804.16;5017976;28;20047;-62
2023/04/13 06:18:49;;;;;;;8.63;3.08;;;;;;;5.75;100.00;99796.84;5022835;28;20021;-60
2023/04/13 06:21:15;;;;;;;6.75;3.40;;;;;;;5.78;100.00;99798.41;5026485;28;20040;-60
2023/04/13 06:23:40;;;;;;;7.40;3.10;;;;;;;5.80;100.00;99792.09;5024871;28;20449;-60
2023/04/13 06:26:06;;;;;;;5.55;3.38;;;;;;;5.85;100.00;99802.28;5027397;28;20042;-60
2023/04/13 06:28:32;;;;;;;8.40;3.20;;;;;;;5.90;100.00;99805.44;5028559;28;20391;-61
2023/04/13 06:30:57;;;;;;;7.38;3.15;;;;;;;5.96;100.00;99812.03;5018028;28;20077;-60
2023/04/13 06:33:23;;;;;;;5.50;2.88;;;;;;;5.99;100.00;99815.31;5018346;28;20443;-62
2023/04/13 06:35:51;;;;;;;6.72;2.95;;;;;;;6.03;100.00;99813.28;5013603;28;20525;-61
2023/04/13 06:38:16;;;;;;;6.85;2.95;;;;;;;6.07;100.00;99825.28;5019729;28;20056;-59
2023/04/13 06:40:42;;;;;;;7.68;2.97;;;;;;;6.11;100.00;99829.38;5023692;28;20030;-61
2023/04/13 06:43:07;;;;;;;11.43;3.13;;;;;;;6.14;100.00;99829.16;5025052;28;20471;-60
2023/04/13 06:45:32;;;;;;;10.10;3.25;;;;;;;6.18;100.00;99833.25;5022398;28;20037;-60
2023/04/13 06:47:59;;;;;;;9.98;3.28;;;;;;;6.22;100.00;99837.31;5024787;28;20067;-61
2023/04/13 06:50:24;;;;;;;7.30;3.20;;;;;;;6.25;100.00;99842.38;5022498;28;20065;-60
2023/04/13 06:52:50;;;;;;;8.45;3.45;;;;;;;6.28;100.00;99844.78;5027519;28;20050;-61
2023/04/13 06:55:16;;;;;;;10.00;3.20;;;;;;;6.32;100.00;99850.66;5020963;28;20386;-61
2023/04/13 06:57:42;;;;;;;9.95;3.28;;;;;;;6.37;100.00;99850.34;5020030;28;20096;-61
2023/04/13 07:00:09;;;;;;;9.95;2.90;;;;;;;6.40;100.00;99852.75;5025603;28;20022;-61
2023/04/13 07:02:35;;;;;;;9.80;3.42;;;;;;;6.44;100.00;99855.00;5019222;28;20487;-61
2023/04/13 07:05:00;;;;;;;10.48;3.20;;;;;;;6.50;100.00;99861.63;5023071;28;20044;-60
2023/04/13 07:07:26;;;;;;;7.13;3.10;;;;;;;6.52;100.00;99856.25;5019013;28;20046;-61
2023/04/13 07:09:51;;;;;;;9.18;3.05;;;;;;;6.57;100.00;99864.66;5027171;28;20060;-61
2023/04/13 07:12:17;;;;;;;9.75;3.10;;;;;;;6.58;100.00;99867.19;5026181;28;20109;-61
2023/04/13 07:14:42;;;;;;;11.27;3.60;;;;;;;6.62;100.00;99876.53;5024262;28;20491;-61
2023/04/13 07:17:08;;;;;;;10.43;3.03;;;;;;;6.64;100.00;99886.97;5031660;28;20046;-60
2023/04/13 07:19:34;;;;;;;9.75;3.28;;;;;;;6.65;100.00;99891.31;5023311;28;20506;-60
2023/04/13 07:22:00;;;;;;;11.68;3.20;;;;;;;6.65;100.00;99894.78;5021981;28;20029;-61
2023/04/13 07:24:27;;;;;;;8.23;3.30;;;;;;;6.65;100.00;99902.69;5021227;28;20160;-61
2023/04/13 07:26:53;;;;;;;8.25;3.45;;;;;;;6.69;100.00;99905.09;5030764;28;20041;-61
2023/04/13 07:29:19;;;;;;;8.45;3.25;;;;;;;6.70;100.00;99914.72;5032888;28;20041;-61
2023/04/13 07:31:44;;;;;;;7.68;3.45;;;;;;;6.71;100.00;99911.97;5027672;28;20026;-60
2023/04/13 07:34:11;;;;;;;9.18;3.55;;;;;;;6.74;100.00;99914.34;5033385;28;20045;-61
2023/04/13 07:36:36;;;;;;;11.63;3.67;;;;;;;6.77;100.00;99919.41;5028636;28;20494;-61
2023/04/13 07:39:02;;;;;;;12.50;3.80;;;;;;;6.80;100.00;99915.69;5025499;28;20049;-61
2023/04/13 07:41:28;;;;;;;11.18;4.03;;;;;;;6.82;100.00;99921.69;5024971;28;20478;-61
2023/04/13 07:43:53;;;;;;;11.93;3.40;;;;;;;6.84;100.00;99930.31;5030569;28;20088;-61
2023/04/13 07:46:25;;;;;;;10.55;3.95;;;;;;;6.87;100.00;99934.53;5026623;28;20026;-61
2023/04/13 07:48:50;;;;;;;14.25;4.30;;;;;;;6.89;100.00;99937.91;5015706;28;20077;-61
2023/04/13 07:51:16;;;;;;;8.00;3.67;;;;;;;6.93;100.00;99944.63;5026039;28;20430;-62
2023/04/13 07:53:42;;;;;;;12.60;3.85;;;;;;;6.96;100.00;99947.03;5013968;28;20119;-61
2023/04/13 07:56:07;;;;;;;13.77;4.25;;;;;;;7.01;100.00;99947.53;5019186;28;20479;-53
2023/04/13 07:58:32;;;;;;;11.45;4.05;;;;;;;7.06;100.00;99950.69;5031625;28;20033;-59
2023/04/13 08:00:57;;;;;;;14.32;4.30;;;;;;;7.14;100.00;99950.91;5033044;28;20033;-58
2023/04/13 08:03:23;;;;;;;14.32;4.00;;;;;;;7.21;100.00;99952.13;5030611;28;20091;-60
2023/04/13 08:05:48;;;;;;;18.13;4.97;;;;;;;7.28;100.00;99957.78;5018507;28;20526;-60
2023/04/13 08:08:13;;;;;;;12.70;3.88;;;;;;;7.37;100.00;99961.50;5021063;28;20509;-59
2023/04/13 08:10:39;;;;;;;13.60;4.15;;;;;;;7.47;100.00;99967.75;5020337;28;20045;-61
2023/04/13 08:13:04;;;;;;;13.98;4.30;;;;;;;7.57;100.00;99960.78;5029463;28;20029;-61
2023/04/13 08:15:30;;;;;;;14.05;4.22;;;;;;;7.65;100.00;99973.41;5028744;28;20125;-60
2023/04/13 08:17:56;;;;;;;12.40;3.95;;;;;;;7.71;100.00;99977.38;5034028;28;20496;-61
2023/04/13 08:20:21;;;;;;;17.95;4.50;;;;;;;7.76;100.00;99983.13;5025258;28;20028;-61
2023/04/13 08:22:46;;;;;;;14.88;4.20;;;;;;;7.80;100.00;99987.22;5021810;28;20302;-61
2023/04/13 08:25:12;;;;;;;12.68;3.80;;;;;;;7.84;100.00;99986.00;5051469;28;20370;-60
2023/04/13 08:27:37;;;;;;;13.73;4.20;;;;;;;7.89;98.58;99996.22;5030388;28;20079;-61
2023/04/13 08:30:04;;;;;;;17.20;4.30;;;;;;;7.92;98.35;100001.28;5033760;28;20025;-60
2023/04/13 08:32:29;;;;;;;16.20;4.25;;;;;;;7.92;98.25;100004.75;5023827;28;20112;-61
2023/04/13 08:34:55;;;;;;;18.13;4.68;;;;;;;7.96;98.69;100006.22;5031676;28;20105;-61
2023/04/13 08:37:20;;;;;;;14.23;5.07;;;;;;;8.03;98.50;100008.38;5032334;28;20035;-60
2023/04/13 08:39:47;;;;;;;17.98;4.82;;;;;;;8.07;96.02;100013.28;5031451;28;20063;-61
2023/04/13 08:42:13;;;;;;;14.68;5.22;;;;;;;8.09;94.66;100036.97;5031316;28;20080;-60
2023/04/13 08:44:39;;;;;;;16.70;3.90;;;;;;;8.11;93.52;100032.38;5032023;28;20483;-60
2023/04/13 08:47:04;;;;;;;12.13;4.38;;;;;;;8.13;94.92;100026.03;5032252;28;20041;-61
2023/04/13 08:49:31;;;;;;;15.23;4.00;;;;;;;8.14;92.78;100040.94;5029053;28;20029;-61
2023/04/13 08:51:58;;;;;;;13.50;3.88;;;;;;;8.17;91.99;100039.84;5015251;28;20028;-60
2023/04/13 08:54:27;;;;;;;13.63;3.80;;;;;;;8.22;92.71;100047.41;5020312;28;20037;-61
2023/04/13 08:56:53;;;;;;;13.60;3.42;;;;;;;8.29;93.18;100048.59;5022887;28;20457;-61
2023/04/13 08:59:21;;;;;;;15.60;4.18;;;;;;;8.37;92.97;100055.94;5027222;28;20095;-61
2023/04/13 09:01:47;;;;;;;12.43;3.47;;;;;;;8.46;90.91;100063.16;5040013;28;20316;-61
2023/04/13 09:04:16;;;;;;;12.90;4.22;;;;;;;8.60;92.17;100070.00;5035261;28;20524;-61
2023/04/13 09:06:43;;;;;;;15.77;3.55;;;;;;;8.75;90.21;100078.50;5024021;28;20056;-61
2023/04/13 09:09:14;;;;;;;13.77;3.90;;;;;;;8.91;88.80;100075.44;5021708;28;20090;-61
2023/04/13 09:11:41;;;;;;;16.73;3.40;;;;;;;9.10;89.00;100080.91;5040501;28;20065;-61
2023/04/13 09:14:07;;;;;;;15.45;3.88;;;;;;;9.22;87.50;100074.59;5030416;28;20222;-61
2023/04/13 09:16:40;;;;;;;13.73;3.60;;;;;;;9.30;88.63;100081.91;5027294;28;20091;-62
2023/04/13 09:19:07;;;;;;;15.98;3.80;;;;;;;9.36;86.37;100081.41;5030368;28;20087;-60
2023/04/13 09:21:43;;;;;;;12.70;3.60;;;;;;;9.37;84.80;100092.84;5030301;28;20124;-60
2023/04/13 09:24:09;;;;;;;14.43;4.28;;;;;;;9.36;84.86;100099.09;5027372;28;20033;-61
2023/04/13 09:26:43;;;;;;;13.18;2.60;;;;;;;9.35;83.13;100100.06;5028651;28;20500;-60
2023/04/13 09:29:20;;;;;;;14.75;3.60;;;;;;;9.33;84.38;100108.16;5024533;28;20041;-60
2023/04/13 09:31:47;;;;;;;14.90;3.22;;;;;;;9.30;82.46;100115.53;5015544;28;20113;-60
2023/04/13 09:34:13;;;;;;;12.40;2.92;;;;;;;9.28;81.90;100114.81;5030953;28;20076;-60
2023/04/13 09:36:39;;;;;;;14.25;3.30;;;;;;;9.21;81.62;100123.25;5024297;28;20079;-60
2023/04/13 09:39:05;;;;;;;13.65;3.47;;;;;;;9.16;82.52;100117.50;5024860;28;20029;-60
2023/04/13 09:41:37;;;;;;;10.05;3.20;;;;;;;9.15;83.77;100130.88;5030961;28;20104;-60
2023/04/13 09:44:24;;;;;;;13.13;3.70;;;;;;;9.19;83.91;100134.94;5031646;28;20097;-60
2023/04/13 09:47:00;;;;;;;12.50;3.72;;;;;;;9.17;82.79;100136.88;5024864;28;20040;-60
2023/04/13 09:49:36;;;;;;;17.98;3.65;;;;;;;9.16;81.90;100143.13;5027265;28;20017;-60
2023/04/13 09:52:02;;;;;;;12.85;3.60;;;;;;;9.19;81.30;100148.19;5026221;28;20087;-59
2023/04/13 09:54:27;;;;;;;13.50;3.22;;;;;;;9.17;81.58;100153.59;5029749;28;20029;-60
2023/04/13 09:56:56;;;;;;;13.90;3.20;;;;;;;9.15;82.48;100155.56;5022307;28;20483;-59
2023/04/13 09:59:22;;;;;;;14.23;3.70;;;;;;;9.14;82.94;100160.97;5027166;28;20069;-60
2023/04/13 10:01:47;;;;;;;13.40;3.90;;;;;;;9.13;84.28;100167.25;5022060;28;20061;-65
2023/04/13 10:04:14;;;;;;;15.18;4.40;;;;;;;9.15;83.67;100181.22;5030513;28;20060;-66
2023/04/13 10:06:42;;;;;;;16.48;4.93;;;;;;;9.16;83.62;100185.53;5031421;28;20112;-60
2023/04/13 10:09:08;;;;;;;16.95;4.90;;;;;;;9.19;82.58;100182.63;5027404;28;20029;-60
2023/04/13 10:11:40;;;;;;;16.02;4.40;;;;;;;9.22;82.27;100185.03;5023743;28;20049;-60
2023/04/13 10:14:13;;;;;;;16.92;5.20;;;;;;;9.22;81.46;100192.97;5031085;28;20391;-60
2023/04/13 10:17:06;;;;;;;18.00;4.10;;;;;;;9.26;83.17;100191.78;5024176;28;20026;-60
2023/04/13 10:19:45;;;;;;;15.23;4.60;;;;;;;9.33;83.76;100192.97;5031238;28;20075;-60
2023/04/13 10:22:11;;;;;;;17.50;5.13;;;;;;;9.37;81.64;100193.53;5025081;28;20029;-60
2023/04/13 10:24:41;;;;;;;14.70;4.28;;;;;;;9.40;82.29;100203.91;5030938;28;20087;-59
2023/04/13 10:27:35;;;;;;;14.43;5.05;;;;;;;9.47;81.57;100209.53;5023255;28;20064;-60
2023/04/13 10:30:12;;;;;;;16.42;4.60;;;;;;;9.42;80.06;100209.91;5029315;28;20038;-60
2023/04/13 10:32:37;;;;;;;19.60;5.82;;;;;;;9.42;79.73;100207.25;5029534;28;20115;-60
2023/04/13 10:35:11;;;;;;;13.60;4.50;;;;;;;9.48;80.81;100216.53;5030820;28;20470;-59
2023/04/13 10:37:38;;;;;;;14.57;4.53;;;;;;;9.55;79.90;100220.34;5011975;28;20065;-60
2023/04/13 10:40:06;;;;;;;11.35;4.65;;;;;;;9.63;79.33;100218.75;5014902;28;20030;-60
2023/04/13 10:42:46;;;;;;;16.40;4.30;;;;;;;9.81;81.75;100215.56;5023035;28;20077;-60
2023/04/13 10:45:22;;;;;;;15.00;4.72;;;;;;;9.95;78.90;100225.00;5017654;28;20037;-60
2023/04/13 10:47:48;;;;;;;18.33;4.80;;;;;;;10.01;77.36;100227.13;5028478;28;20123;-60
2023/04/13 10:50:22;;;;;;;16.52;5.03;;;;;;;10.10;79.17;100229.00;5030962;28;20073;-59
2023/04/13 10:52:58;;;;;;;19.60;4.95;;;;;;;10.15;77.78;100233.94;5026565;28;20052;-59
2023/04/13 10:55:26;;;;;;;17.27;4.28;;;;;;;10.17;76.89;100248.75;5027723;28;20028;-59
2023/04/13 10:57:59;;;;;;;15.07;4.38;;;;;;;10.16;76.77;100247.06;5026748;28;20070;-60
2023/04/13 11:00:26;;;;;;;13.90;3.92;;;;;;;10.19;74.42;100257.44;5028425;28;20032;-59
2023/04/13 11:02:54;;;;;;;9.98;3.58;;;;;;;10.19;74.56;100259.22;5024636;28;20147;-59
2023/04/13 11:05:20;;;;;;;13.15;3.08;;;;;;;10.18;75.77;100257.56;5014148;28;20022;-60
2023/04/13 11:07:47;;;;;;;14.60;3.28;;;;;;;10.18;74.46;100258.38;5014043;28;20546;-59
2023/04/13 11:10:14;;;;;;;11.80;3.35;;;;;;;10.23;76.24;100265.97;5014475;28;20046;-59
2023/04/13 11:12:48;;;;;;;13.18;3.20;;;;;;;10.28;75.60;100268.25;5014051;28;20479;-59
2023/04/13 11:15:19;;;;;;;13.25;3.05;;;;;;;10.25;74.50;100274.63;5031693;28;20025;-60
2023/04/13 11:17:59;;;;;;;10.60;3.05;;;;;;;10.20;74.29;100279.50;5021129;28;20595;-59
2023/04/13 11:20:38;;;;;;;14.38;3.28;;;;;;;10.15;74.82;100277.22;5053586;28;20101;-60
2023/04/13 11:23:19;;;;;;;;;;;;;;;10.18;78.25;100274.31;5020178;28;20053;-60
2023/04/13 11:25:53;;;;;;;11.40;2.72;;;;;;;10.21;75.98;100275.00;5012177;28;19967;-59
2023/04/13 11:28:20;;;;;;;15.32;3.53;;;;;;;10.33;75.94;100274.03;5018030;28;20399;-60
2023/04/13 11:30:55;;;;;;;10.38;3.03;;;;;;;10.55;76.64;100279.19;5017432;28;20026;-60